createdAt,value
2022-09-18T00:03:57.574Z,100037.31
2022-09-18T00:09:00.549Z,100044.50
2022-09-18T00:14:02.988Z,100050.78
2022-09-18T00:19:05.706Z,100043.22
2022-09-18T00:24:07.100Z,100045.19
2022-09-18T00:29:08.397Z,100049.41
2022-09-18T00:34:14.470Z,100041.53
2022-09-18T00:39:30.191Z,100048.56
2022-09-18T00:44:39.412Z,100041.25
2022-09-18T00:49:58.954Z,100043.22
2022-09-18T00:55:09.845Z,100028.63
2022-09-18T01:00:14.238Z,100037.59
2022-09-18T01:05:18.959Z,100039.00
2022-09-18T01:10:29.329Z,100041.13
2022-09-18T01:15:47.897Z,100043.78
2022-09-18T01:21:02.145Z,100040.69
2022-09-18T01:26:30.946Z,100025.25
2022-09-18T01:31:41.694Z,100027.63
2022-09-18T01:36:48.356Z,100035.34
2022-09-18T01:41:51.881Z,100048.28
2022-09-18T01:46:56.214Z,100034.09
2022-09-18T01:52:06.092Z,100048.88
2022-09-18T01:57:22.725Z,100046.34
2022-09-18T02:02:31.015Z,100040.56
2022-09-18T02:07:45.939Z,100036.78
2022-09-18T02:12:48.431Z,100032.84
2022-09-18T02:17:55.772Z,100035.38
2022-09-18T02:23:02.082Z,100034.50
2022-09-18T02:28:05.910Z,100019.50
2022-09-18T02:33:33.305Z,100023.69
2022-09-18T02:39:14.721Z,100030.16
2022-09-18T02:44:27.414Z,100018.78
2022-09-18T02:49:59.310Z,100016.53
2022-09-18T02:55:23.779Z,100015.97
2022-09-18T03:00:27.210Z,100011.34
2022-09-18T03:05:28.472Z,100005.28
2022-09-18T03:10:29.782Z,99994.22
2022-09-18T03:15:31.937Z,99992.38
2022-09-18T03:20:33.216Z,99997.88
2022-09-18T03:25:35.307Z,99990.00
2022-09-18T03:30:36.616Z,100004.19
2022-09-18T03:35:38.104Z,99992.66
2022-09-18T03:40:47.184Z,100004.75
2022-09-18T03:45:49.065Z,99999.28
2022-09-18T03:50:50.630Z,100001.22
2022-09-18T03:55:52.251Z,99998.56
2022-09-18T04:00:53.533Z,99999.97
2022-09-18T04:05:54.809Z,99993.50
2022-09-18T04:10:56.077Z,99998.13
2022-09-18T04:15:57.447Z,99994.63
2022-09-18T04:20:58.698Z,99993.66
2022-09-18T04:26:00.792Z,100002.94
2022-09-18T04:31:02.119Z,100005.84
2022-09-18T04:36:03.642Z,100003.03
2022-09-18T04:41:05.257Z,100005.16
2022-09-18T04:46:06.631Z,100003.63
2022-09-18T04:51:08.681Z,100010.66
2022-09-18T04:56:09.995Z,100005.59
2022-09-18T05:01:11.521Z,99992.66
2022-09-18T05:06:12.876Z,99987.31
2022-09-18T05:11:14.540Z,99994.34
2022-09-18T05:16:16.917Z,99986.75
2022-09-18T05:21:19.172Z,99998.72
2022-09-18T05:26:20.414Z,100001.50
2022-09-18T05:31:21.699Z,100005.59
2022-09-18T05:36:23.005Z,100007.16
2022-09-18T05:41:24.286Z,100008.41
2022-09-18T05:46:25.564Z,100010.38
2022-09-18T05:51:26.863Z,100005.88
2022-09-18T05:56:28.326Z,100017.81
2022-09-18T06:01:30.908Z,100011.47
2022-09-18T06:06:32.294Z,100009.25
2022-09-18T06:11:33.879Z,100015.16
2022-09-18T06:16:38.726Z,100008.38
2022-09-18T06:21:43.400Z,100024.53
2022-09-18T06:26:44.717Z,100028.19
2022-09-18T06:31:46.070Z,100026.78
2022-09-18T06:36:47.343Z,100028.34
2022-09-18T06:41:49.570Z,100035.09
2022-09-18T06:46:50.837Z,100022.16
2022-09-18T06:51:52.187Z,100023.28
2022-09-18T06:56:53.477Z,100030.59
2022-09-18T07:01:54.784Z,100044.22
2022-09-18T07:06:56.053Z,100039.88
2022-09-18T07:11:57.378Z,100041.56
2022-09-18T07:16:58.642Z,100036.22
2022-09-18T07:21:59.917Z,100044.53
2022-09-18T07:27:01.201Z,100041.13
2022-09-18T07:32:02.427Z,100053.34
2022-09-18T07:37:03.697Z,100043.50
2022-09-18T07:42:08.810Z,100052.78
2022-09-18T07:47:11.614Z,100044.88
2022-09-18T07:52:13.259Z,100056.69
2022-09-18T07:57:14.665Z,100058.09
2022-09-18T08:02:16.141Z,100059.78
2022-09-18T08:07:17.535Z,100055.81
2022-09-18T08:12:18.975Z,100052.22
2022-09-18T08:17:20.237Z,100048.75
2022-09-18T08:22:21.512Z,100040.72
2022-09-18T08:27:22.884Z,100034.78
2022-09-18T08:32:24.130Z,100050.69
2022-09-18T08:37:25.958Z,100053.75
2022-09-18T08:42:59.772Z,100042.25
2022-09-18T08:48:11.718Z,100038.16
2022-09-18T08:53:22.720Z,100049.25
2022-09-18T08:58:37.410Z,100049.13
2022-09-18T09:03:59.867Z,100038.72
2022-09-18T09:09:22.678Z,100046.16
2022-09-18T09:14:56.255Z,100044.78
2022-09-18T09:20:08.914Z,100043.31
2022-09-18T09:25:36.197Z,100046.16
2022-09-18T09:30:39.418Z,100031.81
2022-09-18T09:35:48.225Z,100033.81
2022-09-18T09:40:54.159Z,100031.22
2022-09-18T09:45:59.514Z,100011.47
2022-09-18T09:51:16.857Z,100016.38
2022-09-18T09:56:37.553Z,100019.00
2022-09-18T10:01:45.699Z,100025.28
2022-09-18T10:07:18.826Z,100031.41
2022-09-18T10:12:44.378Z,100031.81
2022-09-18T10:17:50.861Z,100031.28
2022-09-18T10:22:52.313Z,100012.72
2022-09-18T10:27:53.831Z,100019.25
2022-09-18T10:32:55.189Z,100022.41
2022-09-18T10:37:57.759Z,100013.94
2022-09-18T10:42:59.974Z,100020.97
2022-09-18T10:48:18.065Z,100001.75
2022-09-18T10:53:43.345Z,100000.09
2022-09-18T11:04:17.147Z,99995.28
2022-09-18T11:09:23.308Z,99996.25
2022-09-18T11:14:38.412Z,99986.25
2022-09-18T11:19:40.179Z,99990.84
2022-09-18T11:24:47.381Z,99981.22
2022-09-18T11:29:52.310Z,99974.53
2022-09-18T11:35:13.173Z,99976.59
2022-09-18T11:40:35.556Z,99989.81
2022-09-18T11:45:42.798Z,99978.06
2022-09-18T11:50:45.442Z,99977.47
2022-09-18T11:55:58.136Z,99954.81
2022-09-18T12:01:13.566Z,99961.41
2022-09-18T12:06:28.976Z,99960.41
2022-09-18T12:12:06.988Z,99959.19
2022-09-18T12:17:23.918Z,99959.00
2022-09-18T12:22:47.212Z,99962.66
2022-09-18T12:28:15.171Z,99956.06
2022-09-18T12:33:42.178Z,99949.56
2022-09-18T12:39:01.631Z,99951.13
2022-09-18T12:44:31.761Z,99953.03
2022-09-18T12:50:12.094Z,99954.66
2022-09-18T12:55:40.645Z,99951.84
2022-09-18T13:01:00.144Z,99934.56
2022-09-18T13:06:11.771Z,99937.72
2022-09-18T13:11:34.948Z,99930.97
2022-09-18T13:16:55.595Z,99932.66
2022-09-18T13:22:14.268Z,99932.09
2022-09-18T13:27:21.635Z,99931.59
2022-09-18T13:32:37.602Z,99923.91
2022-09-18T13:37:51.402Z,99925.06
2022-09-18T13:42:54.290Z,99917.66
2022-09-18T13:48:40.044Z,99919.50
2022-09-18T13:53:57.946Z,99929.28
2022-09-18T13:59:00.367Z,99925.00
2022-09-18T14:04:39.511Z,99918.00
2022-09-18T14:09:52.587Z,99920.44
2022-09-18T14:15:19.495Z,99921.88
2022-09-18T14:20:21.993Z,99944.72
2022-09-18T14:25:44.432Z,99918.44
2022-09-18T14:31:17.702Z,99905.69
2022-09-18T14:36:19.102Z,99925.41
2022-09-18T14:41:29.252Z,99921.75
2022-09-18T14:46:32.033Z,99905.91
2022-09-18T14:51:49.329Z,99911.94
2022-09-18T14:56:53.769Z,99904.59
2022-09-18T15:02:22.567Z,99912.69
2022-09-18T15:07:24.226Z,99899.47
2022-09-18T15:12:28.113Z,99904.47
2022-09-18T15:17:32.265Z,99911.66
2022-09-18T15:22:33.555Z,99905.84
2022-09-18T15:27:35.079Z,99898.13
2022-09-18T15:32:42.387Z,99885.88
2022-09-18T15:37:50.756Z,99881.31
2022-09-18T15:42:58.289Z,99875.03
2022-09-18T15:48:02.428Z,99867.69
2022-09-18T15:53:15.957Z,99880.59
2022-09-18T15:58:28.557Z,99883.41
2022-09-18T16:03:31.449Z,99887.75
2022-09-18T16:08:35.728Z,99873.47
2022-09-18T16:13:38.851Z,99887.94
2022-09-18T16:19:07.478Z,99888.09
2022-09-18T16:24:20.945Z,99881.13
2022-09-18T16:29:23.103Z,99857.09
2022-09-18T16:34:27.471Z,99881.59
2022-09-18T16:39:28.676Z,99861.13
2022-09-18T16:44:30.049Z,99856.88
2022-09-18T16:49:35.520Z,99859.69
2022-09-18T16:54:36.849Z,99855.84
2022-09-18T16:59:42.670Z,99864.47
2022-09-18T17:04:44.008Z,99864.88
2022-09-18T17:09:45.295Z,99869.09
2022-09-18T17:14:46.533Z,99867.19
2022-09-18T17:19:47.980Z,99870.91
2022-09-18T17:24:51.183Z,99882.56
2022-09-18T17:29:52.504Z,99872.97
2022-09-18T17:34:53.778Z,99875.72
2022-09-18T17:39:55.868Z,99874.41
2022-09-18T17:44:57.119Z,99873.13
2022-09-18T17:49:58.445Z,99876.84
2022-09-18T17:55:00.016Z,99874.25
2022-09-18T18:00:01.645Z,99862.81
2022-09-18T18:05:03.351Z,99863.09
2022-09-18T18:10:05.056Z,99861.31
2022-09-18T18:15:07.420Z,99865.00
2022-09-18T18:20:09.630Z,99864.72
2022-09-18T18:25:12.198Z,99861.47
2022-09-18T18:30:14.557Z,99867.19
2022-09-18T18:35:15.843Z,99873.53
2022-09-18T18:40:17.203Z,99882.19
2022-09-18T18:45:19.649Z,99898.69
2022-09-18T18:50:21.760Z,99904.19
2022-09-18T18:55:23.492Z,99927.25
2022-09-18T19:00:27.314Z,99937.16
2022-09-18T19:05:30.368Z,99945.31
2022-09-18T19:10:32.169Z,99955.56
2022-09-18T19:15:38.440Z,99951.78
2022-09-18T19:20:40.103Z,99967.25
2022-09-18T19:25:41.633Z,99976.22
2022-09-18T19:30:43.362Z,99976.22
2022-09-18T19:35:44.716Z,99978.06
2022-09-18T19:40:49.410Z,99980.16
2022-09-18T19:45:50.802Z,99982.28
2022-09-18T19:50:55.521Z,99982.00
2022-09-18T19:55:57.016Z,99993.75
2022-09-18T20:01:01.273Z,100009.75
2022-09-18T20:06:03.153Z,99999.09
2022-09-18T20:11:04.864Z,99978.03
2022-09-18T20:16:08.987Z,99994.19
2022-09-18T20:21:13.125Z,99991.66
2022-09-18T20:26:17.201Z,100014.53
2022-09-18T20:31:20.551Z,99989.94
2022-09-18T20:36:22.547Z,99978.72
2022-09-18T20:41:26.813Z,99942.91
2022-09-18T20:46:28.301Z,99952.44
2022-09-18T20:51:35.755Z,99960.28
2022-09-18T20:56:41.952Z,99967.88
2022-09-18T21:01:45.465Z,99967.56
2022-09-18T21:06:55.067Z,99979.19
2022-09-18T21:11:56.587Z,99977.13
2022-09-18T21:16:57.841Z,99996.19
2022-09-18T21:21:59.122Z,100000.91
2022-09-18T21:27:00.370Z,99997.09
2022-09-18T21:32:01.821Z,99989.06
2022-09-18T21:37:08.037Z,99979.34
2022-09-18T21:42:09.604Z,99982.72
2022-09-18T21:47:12.718Z,99976.06
2022-09-18T21:52:14.595Z,99975.66
2022-09-18T21:57:16.364Z,99976.59
2022-09-18T22:02:20.415Z,99987.81
2022-09-18T22:07:24.137Z,100006.72
2022-09-18T22:12:25.436Z,100014.94
2022-09-18T22:17:27.362Z,100019.78
2022-09-18T22:22:28.696Z,100017.84
2022-09-18T22:27:31.192Z,100019.44
2022-09-18T22:32:32.513Z,100014.97
2022-09-18T22:37:33.849Z,100013.78
2022-09-18T22:42:35.093Z,100014.72
2022-09-18T22:47:36.334Z,100016.91
2022-09-18T22:52:37.893Z,100019.09
2022-09-18T22:57:39.189Z,100022.47
2022-09-18T23:02:42.588Z,100030.94
2022-09-18T23:07:46.321Z,100025.84
2022-09-18T23:12:47.612Z,100034.44
2022-09-18T23:17:48.853Z,100038.66
2022-09-18T23:22:50.109Z,100035.25
2022-09-18T23:27:52.836Z,100031.78
2022-09-18T23:32:54.118Z,100029.50
2022-09-18T23:37:56.439Z,100036.72
2022-09-18T23:42:57.674Z,100039.94
2022-09-18T23:47:58.933Z,100033.31
2022-09-18T23:53:00.205Z,100040.53
2022-09-18T23:58:01.504Z,100032.78
